createdAt,value
2022-12-13T00:00:23.145Z,5.00
2022-12-13T00:02:55.860Z,5.18
2022-12-13T00:05:28.412Z,5.35
2022-12-13T00:08:01.937Z,4.78
2022-12-13T00:10:34.543Z,4.88
2022-12-13T00:13:07.247Z,5.32
2022-12-13T00:15:39.770Z,6.60
2022-12-13T00:18:12.243Z,5.38
2022-12-13T00:20:44.696Z,5.25
2022-12-13T00:23:17.265Z,5.35
2022-12-13T00:25:50.673Z,4.68
2022-12-13T00:28:23.160Z,4.77
2022-12-13T00:31:18.958Z,5.97
2022-12-13T00:33:53.686Z,5.97
2022-12-13T00:36:26.732Z,5.47
2022-12-13T00:39:02.235Z,4.75
2022-12-13T00:41:36.295Z,4.60
2022-12-13T00:44:11.837Z,5.13
2022-12-13T00:46:44.400Z,5.78
2022-12-13T00:49:17.150Z,5.18
2022-12-13T00:51:49.961Z,5.30
2022-12-13T00:54:22.536Z,5.68
2022-12-13T00:56:55.084Z,5.78
2022-12-13T00:59:27.596Z,5.22
2022-12-13T01:02:00.177Z,4.63
2022-12-13T01:04:32.748Z,5.68
2022-12-13T01:07:05.288Z,4.88
2022-12-13T01:09:39.821Z,5.60
2022-12-13T01:12:12.635Z,5.65
2022-12-13T01:14:45.211Z,5.18
2022-12-13T01:17:17.750Z,5.50
2022-12-13T01:19:50.420Z,5.05
2022-12-13T01:22:23.475Z,5.63
2022-12-13T01:24:56.060Z,6.63
2022-12-13T01:27:28.659Z,5.25
2022-12-13T01:30:01.223Z,5.45
2022-12-13T01:32:33.757Z,6.35
2022-12-13T01:35:06.577Z,6.78
2022-12-13T01:37:39.124Z,5.68
2022-12-13T01:40:15.923Z,5.60
2022-12-13T01:42:49.053Z,5.75
2022-12-13T01:45:28.461Z,6.82
2022-12-13T01:48:08.129Z,6.47
2022-12-13T01:50:46.607Z,5.22
2022-12-13T01:53:28.912Z,4.82
2022-12-13T01:56:09.736Z,4.75
2022-12-13T01:58:42.884Z,5.32
2022-12-13T02:01:16.880Z,4.35
2022-12-13T02:03:49.559Z,4.90
2022-12-13T02:06:34.765Z,6.20
2022-12-13T02:09:10.121Z,6.05
2022-12-13T02:11:44.789Z,6.25
2022-12-13T02:14:17.351Z,4.68
2022-12-13T02:17:24.773Z,5.45
2022-12-13T02:20:38.027Z,5.22
2022-12-13T02:23:22.572Z,5.75
2022-12-13T02:26:23.632Z,4.57
2022-12-13T02:29:35.372Z,5.93
2022-12-13T02:33:12.763Z,5.85
2022-12-13T02:36:23.785Z,5.32
2022-12-13T02:39:17.316Z,5.00
2022-12-13T02:42:21.393Z,6.45
2022-12-13T02:45:07.647Z,6.05
2022-12-13T02:47:43.736Z,5.85
2022-12-13T02:50:16.963Z,5.22
2022-12-13T02:52:52.208Z,5.75
2022-12-13T02:55:28.130Z,5.65
2022-12-13T02:58:01.627Z,5.63
2022-12-13T03:01:28.460Z,6.22
2022-12-13T03:04:22.176Z,5.25
2022-12-13T03:07:22.294Z,5.57
2022-12-13T03:10:18.717Z,6.50
2022-12-13T03:13:25.496Z,5.75
2022-12-13T03:16:14.797Z,5.65
2022-12-13T03:19:02.717Z,5.47
2022-12-13T03:21:48.260Z,5.50
2022-12-13T03:24:21.809Z,6.32
2022-12-13T03:26:54.372Z,7.72
2022-12-13T03:29:27.203Z,7.00
2022-12-13T03:31:59.764Z,6.57
2022-12-13T03:34:43.581Z,6.32
2022-12-13T03:37:17.628Z,5.57
2022-12-13T03:39:50.848Z,6.80
2022-12-13T03:42:23.492Z,5.18
2022-12-13T03:44:56.012Z,6.28
2022-12-13T03:47:28.528Z,5.75
2022-12-13T03:50:25.411Z,5.05
2022-12-13T03:53:01.999Z,6.75
2022-12-13T03:55:34.661Z,5.53
2022-12-13T03:58:08.149Z,6.70
2022-12-13T04:00:41.020Z,5.88
2022-12-13T04:03:13.951Z,6.18
2022-12-13T04:05:46.490Z,5.68
2022-12-13T04:08:22.233Z,5.55
2022-12-13T04:10:55.101Z,6.28
2022-12-13T04:13:33.717Z,5.28
2022-12-13T04:16:06.535Z,6.35
2022-12-13T04:18:39.271Z,5.80
2022-12-13T04:21:11.824Z,6.75
2022-12-13T04:23:44.280Z,5.55
2022-12-13T04:26:16.816Z,5.07
2022-12-13T04:28:54.300Z,5.60
2022-12-13T04:31:27.310Z,5.28
2022-12-13T04:33:59.875Z,6.93
2022-12-13T04:36:32.961Z,5.03
2022-12-13T04:39:21.862Z,7.07
2022-12-13T04:41:55.396Z,6.10
2022-12-13T04:44:31.462Z,5.88
2022-12-13T04:47:06.516Z,6.03
2022-12-13T04:49:39.042Z,6.35
2022-12-13T04:52:11.529Z,5.57
2022-12-13T04:54:44.010Z,6.47
2022-12-13T04:57:16.721Z,6.10
2022-12-13T04:59:49.386Z,4.78
2022-12-13T05:02:24.045Z,5.65
2022-12-13T05:04:57.091Z,5.28
2022-12-13T05:07:29.860Z,6.63
2022-12-13T05:10:02.532Z,6.07
2022-12-13T05:12:35.073Z,6.65
2022-12-13T05:15:08.561Z,5.25
2022-12-13T05:17:41.211Z,4.63
2022-12-13T05:20:13.931Z,5.57
2022-12-13T05:22:46.542Z,6.22
2022-12-13T05:25:19.196Z,5.15
2022-12-13T05:27:56.829Z,5.93
2022-12-13T05:30:29.640Z,4.72
2022-12-13T05:33:02.190Z,5.47
2022-12-13T05:35:35.032Z,5.28
2022-12-13T05:38:07.540Z,6.15
2022-12-13T05:40:40.308Z,6.85
2022-12-13T05:43:21.822Z,6.80
2022-12-13T05:45:55.147Z,5.55
2022-12-13T05:48:27.856Z,6.65
2022-12-13T05:51:10.585Z,5.50
2022-12-13T05:53:47.342Z,5.90
2022-12-13T05:56:23.253Z,5.50
2022-12-13T05:58:56.316Z,5.22
2022-12-13T06:01:28.947Z,5.10
2022-12-13T06:04:01.630Z,6.25
2022-12-13T06:06:34.161Z,5.32
2022-12-13T06:09:07.880Z,5.70
2022-12-13T06:11:43.523Z,6.38
2022-12-13T06:14:22.637Z,5.57
2022-12-13T06:16:56.183Z,6.00
2022-12-13T06:19:28.834Z,6.57
2022-12-13T06:22:01.522Z,5.75
2022-12-13T06:24:34.086Z,6.90
2022-12-13T06:27:06.675Z,6.22
2022-12-13T06:29:39.453Z,5.75
2022-12-13T06:32:12.291Z,5.47
2022-12-13T06:34:44.886Z,5.95
2022-12-13T06:37:17.756Z,5.28
2022-12-13T06:39:50.320Z,5.78
2022-12-13T06:42:22.872Z,5.28
2022-12-13T06:44:56.176Z,5.40
2022-12-13T06:47:31.276Z,5.57
2022-12-13T06:50:06.125Z,6.72
2022-12-13T06:52:38.659Z,5.60
2022-12-13T06:55:11.375Z,5.28
2022-12-13T06:57:44.023Z,5.10
2022-12-13T07:00:22.240Z,6.00
2022-12-13T07:02:56.834Z,5.43
2022-12-13T07:05:29.629Z,5.07
2022-12-13T07:08:02.235Z,6.53
2022-12-13T07:10:34.863Z,6.07
2022-12-13T07:13:07.524Z,5.72
2022-12-13T07:15:40.569Z,5.25
2022-12-13T07:18:13.639Z,5.35
2022-12-13T07:20:46.401Z,6.10
2022-12-13T07:23:19.144Z,4.93
2022-12-13T07:25:57.303Z,5.90
2022-12-13T07:28:34.377Z,6.78
2022-12-13T07:31:10.360Z,6.78
2022-12-13T07:33:42.936Z,6.10
2022-12-13T07:36:19.147Z,4.80
2022-12-13T07:38:57.240Z,5.75
2022-12-13T07:41:29.841Z,4.88
2022-12-13T07:44:02.584Z,5.90
2022-12-13T07:46:35.432Z,5.93
2022-12-13T07:49:08.080Z,5.18
2022-12-13T07:51:40.624Z,6.47
2022-12-13T07:54:13.310Z,6.25
2022-12-13T07:56:46.257Z,5.30
2022-12-13T07:59:28.309Z,5.75
2022-12-13T08:02:01.900Z,5.43
2022-12-13T08:04:38.195Z,6.03
2022-12-13T08:07:11.498Z,6.13
2022-12-13T08:09:49.522Z,5.90
2022-12-13T08:12:25.113Z,6.25
2022-12-13T08:14:57.774Z,5.30
2022-12-13T08:17:31.109Z,5.75
2022-12-13T08:20:05.307Z,6.13
2022-12-13T08:25:10.795Z,5.50
2022-12-13T08:27:43.353Z,6.05
2022-12-13T08:30:22.817Z,5.68
2022-12-13T08:32:56.107Z,5.88
2022-12-13T08:35:33.672Z,5.95
2022-12-13T08:38:07.628Z,6.35
2022-12-13T08:40:40.562Z,5.60
2022-12-13T08:43:13.088Z,6.43
2022-12-13T08:45:45.596Z,7.32
2022-12-13T08:48:18.672Z,6.57
2022-12-13T08:50:52.387Z,5.10
2022-12-13T08:53:27.936Z,5.83
2022-12-13T08:56:06.223Z,7.10
2022-12-13T08:58:39.757Z,6.55
2022-12-13T09:01:12.479Z,5.60
2022-12-13T09:03:45.347Z,6.57
2022-12-13T09:06:18.189Z,6.20
2022-12-13T09:08:53.953Z,7.43
2022-12-13T09:11:33.246Z,7.10
2022-12-13T09:14:08.192Z,5.93
2022-12-13T09:16:50.898Z,6.43
2022-12-13T09:19:26.737Z,5.85
2022-12-13T09:22:02.614Z,6.43
2022-12-13T09:24:36.869Z,7.45
2022-12-13T09:27:10.419Z,6.05
2022-12-13T09:30:00.432Z,5.78
2022-12-13T09:32:33.620Z,6.88
2022-12-13T09:35:07.564Z,5.78
2022-12-13T09:37:45.706Z,6.22
2022-12-13T09:40:28.336Z,7.00
2022-12-13T09:43:12.440Z,6.47
2022-12-13T09:45:48.529Z,7.70
2022-12-13T09:48:23.210Z,6.63
2022-12-13T09:51:27.242Z,6.07
2022-12-13T09:53:52.839Z,6.05
2022-12-13T09:56:25.494Z,5.88
2022-12-13T09:58:59.322Z,6.15
2022-12-13T10:01:33.418Z,7.00
2022-12-13T10:04:15.467Z,5.07
2022-12-13T10:06:53.763Z,6.45
2022-12-13T10:09:27.267Z,5.57
2022-12-13T10:11:59.930Z,7.15
2022-12-13T10:14:47.165Z,6.38
2022-12-13T10:17:25.677Z,7.35
2022-12-13T10:19:58.501Z,6.80
2022-12-13T10:22:31.257Z,6.43
2022-12-13T10:25:06.297Z,6.85
2022-12-13T10:27:47.508Z,7.03
2022-12-13T10:30:28.575Z,6.25
2022-12-13T10:33:06.046Z,7.13
2022-12-13T10:35:41.099Z,5.85
2022-12-13T10:38:13.644Z,6.13
2022-12-13T10:40:48.833Z,6.03
2022-12-13T10:43:27.758Z,5.75
2022-12-13T10:46:03.973Z,6.65
2022-12-13T10:48:52.522Z,5.93
2022-12-13T10:51:25.441Z,7.63
2022-12-13T10:54:00.796Z,6.18
2022-12-13T10:56:49.000Z,6.07
2022-12-13T10:59:34.740Z,7.00
2022-12-13T11:02:37.884Z,6.53
2022-12-13T11:05:34.140Z,6.07
2022-12-13T11:08:36.120Z,6.82
2022-12-13T11:11:10.088Z,6.55
2022-12-13T11:13:53.556Z,6.13
2022-12-13T11:16:29.985Z,5.70
2022-12-13T11:19:20.360Z,5.47
2022-12-13T11:21:54.477Z,5.75
2022-12-13T11:24:42.334Z,6.22
2022-12-13T11:27:45.212Z,5.82
2022-12-13T11:30:27.251Z,6.80
2022-12-13T11:33:27.846Z,6.15
2022-12-13T11:36:00.503Z,6.55
2022-12-13T11:39:12.648Z,6.65
2022-12-13T11:41:57.578Z,4.95
2022-12-13T11:45:22.248Z,6.57
2022-12-13T11:50:56.549Z,4.93
2022-12-13T11:53:40.983Z,5.13
2022-12-13T11:59:48.016Z,5.00
2022-12-13T12:02:35.324Z,5.53
2022-12-13T12:05:38.300Z,4.93
2022-12-13T12:08:40.587Z,6.70
2022-12-13T12:11:26.626Z,6.05
2022-12-13T12:14:17.139Z,5.32
2022-12-13T12:16:55.217Z,5.45
2022-12-13T12:19:39.225Z,5.07
2022-12-13T12:22:36.585Z,5.28
2022-12-13T12:25:45.480Z,5.15
2022-12-13T12:28:51.512Z,4.78
2022-12-13T12:31:57.052Z,4.97
2022-12-13T12:34:52.459Z,5.05
2022-12-13T12:37:47.387Z,4.88
2022-12-13T12:41:07.516Z,4.28
2022-12-13T12:43:42.473Z,4.70
2022-12-13T12:47:32.518Z,4.47
2022-12-13T12:50:43.889Z,4.75
2022-12-13T12:53:45.187Z,4.97
2022-12-13T12:56:50.604Z,4.38
2022-12-13T13:00:01.923Z,4.35
2022-12-13T13:03:01.842Z,3.95
2022-12-13T13:05:47.656Z,5.03
2022-12-13T13:08:29.234Z,4.45
2022-12-13T13:11:06.367Z,4.15
2022-12-13T13:13:57.665Z,3.92
2022-12-13T13:16:40.308Z,4.45
2022-12-13T13:19:15.335Z,4.57
2022-12-13T13:22:01.443Z,5.35
2022-12-13T13:24:35.182Z,4.88
2022-12-13T13:27:10.659Z,4.25
2022-12-13T13:29:44.004Z,4.18
2022-12-13T13:32:28.273Z,4.03
2022-12-13T13:35:33.548Z,4.72
2022-12-13T13:38:47.666Z,4.45
2022-12-13T13:41:55.141Z,5.07
2022-12-13T13:44:49.801Z,4.00
2022-12-13T13:47:22.364Z,4.38
2022-12-13T13:50:11.127Z,5.03
2022-12-13T13:53:04.979Z,4.70
2022-12-13T13:56:05.439Z,3.53
2022-12-13T13:59:06.055Z,3.40
2022-12-13T14:02:17.590Z,4.07
2022-12-13T14:05:16.678Z,4.82
2022-12-13T14:08:32.857Z,4.43
2022-12-13T14:11:17.724Z,3.30
2022-12-13T14:14:38.508Z,3.38
2022-12-13T14:17:48.366Z,3.17
2022-12-13T14:20:58.712Z,4.35
2022-12-13T14:24:14.577Z,3.17
2022-12-13T14:27:35.863Z,3.88
2022-12-13T14:30:28.112Z,6.07
2022-12-13T14:33:01.823Z,3.33
2022-12-13T14:35:34.389Z,3.45
2022-12-13T14:38:22.871Z,3.72
2022-12-13T14:41:02.678Z,3.30
2022-12-13T14:43:36.198Z,3.10
2022-12-13T14:46:08.885Z,4.35
2022-12-13T14:48:53.766Z,2.83
2022-12-13T14:51:35.389Z,3.00
2022-12-13T14:54:25.662Z,3.42
2022-12-13T14:57:03.425Z,3.30
2022-12-13T14:59:36.048Z,3.00
2022-12-13T15:02:18.840Z,3.30
2022-12-13T15:05:05.877Z,3.63
2022-12-13T15:07:41.596Z,4.00
2022-12-13T15:10:38.459Z,3.70
2022-12-13T15:13:43.282Z,4.10
2022-12-13T15:16:28.169Z,3.55
2022-12-13T15:19:29.391Z,4.03
2022-12-13T15:22:13.815Z,4.00
2022-12-13T15:24:48.804Z,3.00
2022-12-13T15:27:24.489Z,3.10
2022-12-13T15:29:57.490Z,3.58
2022-12-13T15:32:30.187Z,2.90
2022-12-13T15:35:16.857Z,3.63
2022-12-13T15:37:49.571Z,3.05
2022-12-13T15:40:22.400Z,3.95
2022-12-13T15:42:55.620Z,4.13
2022-12-13T15:45:36.360Z,5.25
2022-12-13T15:48:49.046Z,3.92
2022-12-13T15:51:30.268Z,3.42
2022-12-13T15:54:03.432Z,4.13
2022-12-13T15:56:41.528Z,3.58
2022-12-13T15:59:34.854Z,5.10
2022-12-13T16:02:35.583Z,3.53
2022-12-13T16:05:17.875Z,4.30
2022-12-13T16:07:56.408Z,5.68
2022-12-13T16:10:30.976Z,4.03
2022-12-13T16:13:08.119Z,3.55
2022-12-13T16:15:51.855Z,3.47
2022-12-13T16:18:58.095Z,4.18
2022-12-13T16:21:33.859Z,4.28
2022-12-13T16:24:18.457Z,3.80
2022-12-13T16:26:51.262Z,3.03
2022-12-13T16:29:23.800Z,3.50
2022-12-13T16:32:01.635Z,3.88
2022-12-13T16:34:41.573Z,3.35
2022-12-13T16:37:26.455Z,3.20
2022-12-13T16:40:02.079Z,3.75
2022-12-13T16:42:35.192Z,3.60
2022-12-13T16:48:10.928Z,4.43
2022-12-13T16:50:46.876Z,4.03
2022-12-13T16:53:19.837Z,3.33
2022-12-13T16:55:58.638Z,3.85
2022-12-13T16:58:32.194Z,3.08
2022-12-13T17:01:13.426Z,3.15
2022-12-13T17:03:46.095Z,3.00
2022-12-13T17:06:24.152Z,2.97
2022-12-13T17:08:56.648Z,4.40
2022-12-13T17:11:31.919Z,4.38
2022-12-13T17:14:05.954Z,4.10
2022-12-13T17:16:38.614Z,4.78
2022-12-13T17:19:14.506Z,3.15
2022-12-13T17:21:47.324Z,3.63
2022-12-13T17:24:20.017Z,3.50
2022-12-13T17:26:56.431Z,3.67
2022-12-13T17:29:29.430Z,3.45
2022-12-13T17:32:02.391Z,3.95
2022-12-13T17:34:35.164Z,4.05
2022-12-13T17:37:10.627Z,3.47
2022-12-13T17:39:44.011Z,3.67
2022-12-13T17:42:16.704Z,3.72
2022-12-13T17:44:50.380Z,3.90
2022-12-13T17:47:24.061Z,3.33
2022-12-13T17:49:56.664Z,3.33
2022-12-13T17:52:29.217Z,3.60
2022-12-13T17:55:04.699Z,3.60
2022-12-13T17:57:37.399Z,3.75
2022-12-13T18:00:11.039Z,3.55
2022-12-13T18:02:55.328Z,3.65
2022-12-13T18:05:28.527Z,3.75
2022-12-13T18:08:01.174Z,3.13
2022-12-13T18:10:34.023Z,3.90
2022-12-13T18:13:06.645Z,3.13
2022-12-13T18:15:39.324Z,3.67
2022-12-13T18:18:12.605Z,3.97
2022-12-13T18:20:47.258Z,4.15
2022-12-13T18:23:20.064Z,3.53
2022-12-13T18:25:52.609Z,3.65
2022-12-13T18:28:25.264Z,3.53
2022-12-13T18:31:18.909Z,3.42
2022-12-13T18:33:54.191Z,3.33
2022-12-13T18:36:28.065Z,3.70
2022-12-13T18:39:04.359Z,3.45
2022-12-13T18:41:37.024Z,3.60
2022-12-13T18:44:11.449Z,3.72
2022-12-13T18:46:46.187Z,3.88
2022-12-13T18:49:18.955Z,3.97
2022-12-13T18:51:51.619Z,3.92
2022-12-13T18:54:24.220Z,3.08
2022-12-13T18:56:56.708Z,3.55
2022-12-13T18:59:29.804Z,4.55
2022-12-13T19:02:02.350Z,3.90
2022-12-13T19:04:35.868Z,3.72
2022-12-13T19:07:09.701Z,3.70
2022-12-13T19:09:42.328Z,3.53
2022-12-13T19:12:26.940Z,3.70
2022-12-13T19:14:59.478Z,3.35
2022-12-13T19:17:32.952Z,4.80
2022-12-13T19:20:06.416Z,3.70
2022-12-13T19:22:39.388Z,4.47
2022-12-13T19:25:12.013Z,4.18
2022-12-13T19:27:46.685Z,4.97
2022-12-13T19:30:22.922Z,3.78
2022-12-13T19:32:55.468Z,3.60
2022-12-13T19:35:28.128Z,3.63
2022-12-13T19:38:00.966Z,4.07
2022-12-13T19:40:33.519Z,3.53
2022-12-13T19:43:07.019Z,3.30
2022-12-13T19:45:40.618Z,4.32
2022-12-13T19:48:13.664Z,3.35
2022-12-13T19:50:46.708Z,4.38
2022-12-13T19:53:19.197Z,3.78
2022-12-13T19:55:51.851Z,3.60
2022-12-13T19:58:25.918Z,3.97
2022-12-13T20:01:03.118Z,3.65
2022-12-13T20:03:40.015Z,4.18
2022-12-13T20:06:17.439Z,4.28
2022-12-13T20:08:50.907Z,4.07
2022-12-13T20:11:23.869Z,3.72
2022-12-13T20:13:56.743Z,4.22
2022-12-13T20:16:29.496Z,3.42
2022-12-13T20:19:03.017Z,4.15
2022-12-13T20:21:35.721Z,3.58
2022-12-13T20:24:08.345Z,3.92
2022-12-13T20:26:41.244Z,3.60
2022-12-13T20:29:13.820Z,3.60
2022-12-13T20:31:48.478Z,4.35
2022-12-13T20:34:21.755Z,4.03
2022-12-13T20:36:55.441Z,3.72
2022-12-13T20:39:28.124Z,4.28
2022-12-13T20:42:00.902Z,4.25
2022-12-13T20:44:33.615Z,3.65
2022-12-13T20:47:06.327Z,3.80
2022-12-13T20:49:38.953Z,4.22
2022-12-13T20:52:11.505Z,3.97
2022-12-13T20:54:44.212Z,3.50
2022-12-13T20:57:17.505Z,4.40
2022-12-13T20:59:50.080Z,3.67
2022-12-13T21:02:24.001Z,3.65
2022-12-13T21:04:56.612Z,4.07
2022-12-13T21:07:48.314Z,4.15
2022-12-13T21:10:21.136Z,6.45
2022-12-13T21:12:54.038Z,4.13
2022-12-13T21:15:26.611Z,3.50
2022-12-13T21:17:59.176Z,4.57
2022-12-13T21:20:31.811Z,5.32
2022-12-13T21:23:04.488Z,4.43
2022-12-13T21:25:37.060Z,3.15
2022-12-13T21:28:10.773Z,3.95
2022-12-13T21:30:43.585Z,4.07
2022-12-13T21:33:16.190Z,3.60
2022-12-13T21:35:48.916Z,3.50
2022-12-13T21:38:22.001Z,4.47
2022-12-13T21:40:54.693Z,3.67
2022-12-13T21:43:39.477Z,3.55
2022-12-13T21:46:16.867Z,4.32
2022-12-13T21:48:52.301Z,3.92
2022-12-13T21:51:28.064Z,3.42
2022-12-13T21:54:00.759Z,3.38
2022-12-13T21:56:52.293Z,4.03
2022-12-13T21:59:29.043Z,3.42
2022-12-13T22:02:16.478Z,3.50
2022-12-13T22:04:55.798Z,4.78
2022-12-13T22:07:32.406Z,3.80
2022-12-13T22:10:05.780Z,3.22
2022-12-13T22:12:42.148Z,3.77
2022-12-13T22:15:16.096Z,3.75
2022-12-13T22:17:48.752Z,3.47
2022-12-13T22:20:21.449Z,3.80
2022-12-13T22:22:54.009Z,2.75
2022-12-13T22:25:26.658Z,3.45
2022-12-13T22:27:59.170Z,3.78
2022-12-13T22:30:31.888Z,3.33
2022-12-13T22:33:04.433Z,3.20
2022-12-13T22:35:38.109Z,3.97
2022-12-13T22:38:10.819Z,3.08
2022-12-13T22:40:43.916Z,3.42
2022-12-13T22:43:20.520Z,3.45
2022-12-13T22:46:06.301Z,3.15
2022-12-13T22:48:39.251Z,3.05
2022-12-13T22:51:15.671Z,3.33
2022-12-13T22:53:48.967Z,3.15
2022-12-13T22:56:23.679Z,3.60
2022-12-13T22:59:01.332Z,4.28
2022-12-13T23:01:38.587Z,3.08
2022-12-13T23:04:11.920Z,3.15
2022-12-13T23:06:44.712Z,2.72
2022-12-13T23:09:17.409Z,3.33
2022-12-13T23:12:09.090Z,3.13
2022-12-13T23:14:41.764Z,3.10
2022-12-13T23:17:14.330Z,3.13
2022-12-13T23:19:50.703Z,2.53
2022-12-13T23:22:26.023Z,2.92
2022-12-13T23:24:59.212Z,2.80
2022-12-13T23:27:32.856Z,3.38
2022-12-13T23:30:06.343Z,2.78
2022-12-13T23:32:40.056Z,3.20
2022-12-13T23:35:12.670Z,2.78
2022-12-13T23:37:45.224Z,3.40
2022-12-13T23:40:21.085Z,3.45
2022-12-13T23:42:53.726Z,2.95
2022-12-13T23:45:26.948Z,3.20
2022-12-13T23:47:59.443Z,2.65
2022-12-13T23:50:32.011Z,3.30
2022-12-13T23:53:04.454Z,2.55
2022-12-13T23:55:36.996Z,3.25
2022-12-13T23:58:09.712Z,2.33
